createdAt,value
2018-10-18T00:01:22.928Z,102111.93
2018-10-18T00:04:26.497Z,102111.26
2018-10-18T00:07:31.018Z,102117.06
2018-10-18T00:10:34.470Z,102112.50
2018-10-18T00:13:38.225Z,102105.95
2018-10-18T00:16:41.739Z,102101.96
2018-10-18T00:19:45.328Z,102103.73
2018-10-18T00:22:48.872Z,102104.34
2018-10-18T00:25:52.458Z,102103.85
2018-10-18T00:28:56.138Z,102103.64
2018-10-18T00:31:59.621Z,102106.84
2018-10-18T00:35:03.162Z,102104.43
2018-10-18T00:38:07.703Z,102103.78
2018-10-18T00:41:11.241Z,102105.51
2018-10-18T00:44:14.834Z,102100.37
2018-10-18T00:47:18.266Z,102102.53
2018-10-18T00:50:22.796Z,102104.11
2018-10-18T00:53:26.323Z,102105.58
2018-10-18T00:56:29.993Z,102110.62
2018-10-18T00:59:33.545Z,102107.72
2018-10-18T01:02:37.114Z,102111.37
2018-10-18T01:05:40.615Z,102110.41
2018-10-18T01:08:44.210Z,102106.99
2018-10-18T01:11:47.808Z,102108.08
2018-10-18T01:14:51.326Z,102096.93
2018-10-18T01:17:54.818Z,102098.65
2018-10-18T01:20:58.479Z,102101.93
2018-10-18T01:24:07.254Z,102095.06
2018-10-18T01:27:10.804Z,102099.87
2018-10-18T01:30:14.380Z,102102.52
2018-10-18T01:33:17.873Z,102105.09
2018-10-18T01:36:21.428Z,102103.63
2018-10-18T01:39:25.122Z,102096.39
2018-10-18T01:42:29.612Z,102104.95
2018-10-18T01:45:33.250Z,102100.16
2018-10-18T01:48:36.813Z,102101.19
2018-10-18T01:51:40.356Z,102098.17
2018-10-18T01:54:43.932Z,102095.70
2018-10-18T01:57:47.431Z,102092.76
2018-10-18T02:00:50.910Z,102094.31
2018-10-18T02:03:54.522Z,102094.95
2018-10-18T02:06:58.155Z,102091.16
2018-10-18T02:10:01.922Z,102100.68
2018-10-18T02:13:05.902Z,102094.02
2018-10-18T02:16:09.581Z,102094.98
2018-10-18T02:19:13.139Z,102095.69
2018-10-18T02:22:16.616Z,102095.19
2018-10-18T02:25:20.184Z,102096.36
2018-10-18T02:28:23.717Z,102094.72
2018-10-18T02:31:27.224Z,102099.82
2018-10-18T02:34:31.820Z,102094.28
2018-10-18T02:37:35.329Z,102094.82
2018-10-18T02:40:38.876Z,102092.08
2018-10-18T02:43:42.473Z,102091.34
2018-10-18T02:46:45.971Z,102098.40
2018-10-18T02:49:49.576Z,102091.13
2018-10-18T02:52:53.079Z,102086.89
2018-10-18T02:55:56.648Z,102090.83
2018-10-18T02:59:00.166Z,102093.04
2018-10-18T03:02:03.792Z,102097.57
2018-10-18T03:05:08.710Z,102096.42
2018-10-18T03:08:14.321Z,102097.93
2018-10-18T03:11:17.880Z,102097.70
2018-10-18T03:14:21.505Z,102097.39
2018-10-18T03:17:25.163Z,102100.79
2018-10-18T03:20:28.652Z,102101.37
2018-10-18T03:23:32.152Z,102109.30
2018-10-18T03:26:35.726Z,102108.19
2018-10-18T03:29:39.310Z,102117.56
2018-10-18T03:32:42.838Z,102122.04
2018-10-18T03:35:46.541Z,102117.38
2018-10-18T03:38:49.983Z,102122.52
2018-10-18T03:41:53.598Z,102126.54
2018-10-18T03:44:57.316Z,102121.48
2018-10-18T03:48:00.818Z,102126.84
2018-10-18T03:51:05.478Z,102136.58
2018-10-18T03:54:09.274Z,102133.84
2018-10-18T03:57:12.893Z,102132.83
2018-10-18T04:00:16.437Z,102132.53
2018-10-18T04:03:21.948Z,102131.29
2018-10-18T04:06:25.566Z,102135.05
2018-10-18T04:09:29.514Z,102134.41
2018-10-18T04:12:33.089Z,102134.90
2018-10-18T04:15:36.679Z,102134.55
2018-10-18T04:18:40.291Z,102141.45
2018-10-18T04:21:43.929Z,102138.98
2018-10-18T04:24:47.533Z,102136.37
2018-10-18T04:27:51.077Z,102134.25
2018-10-18T04:30:54.614Z,102141.34
2018-10-18T04:33:58.174Z,102138.97
2018-10-18T04:37:01.667Z,102146.98
2018-10-18T04:40:06.011Z,102145.17
2018-10-18T04:43:09.777Z,102144.58
2018-10-18T04:46:13.303Z,102142.90
2018-10-18T04:49:16.813Z,102143.96
2018-10-18T04:52:20.311Z,102143.27
2018-10-18T04:55:23.869Z,102149.85
2018-10-18T04:58:27.666Z,102149.26
2018-10-18T05:01:31.289Z,102143.46
2018-10-18T05:04:34.848Z,102142.07
2018-10-18T05:07:38.402Z,102150.55
2018-10-18T05:10:42.157Z,102150.39
2018-10-18T05:13:47.806Z,102150.19
2018-10-18T05:16:53.445Z,102152.26
2018-10-18T05:19:57.013Z,102151.18
2018-10-18T05:23:00.771Z,102156.18
2018-10-18T05:26:04.380Z,102164.48
2018-10-18T05:29:07.882Z,102165.14
2018-10-18T05:32:11.397Z,102173.00
2018-10-18T05:35:15.052Z,102180.60
2018-10-18T05:38:18.749Z,102185.85
2018-10-18T05:41:22.371Z,102186.68
2018-10-18T05:44:26.029Z,102190.83
2018-10-18T05:47:29.616Z,102199.30
2018-10-18T05:50:33.096Z,102196.33
2018-10-18T05:53:36.700Z,102202.92
2018-10-18T05:56:40.171Z,102202.67
2018-10-18T05:59:43.659Z,102201.04
2018-10-18T06:02:47.585Z,102208.02
2018-10-18T06:05:51.090Z,102211.52
2018-10-18T06:08:54.524Z,102215.76
2018-10-18T06:11:58.115Z,102215.86
2018-10-18T06:15:01.690Z,102226.31
2018-10-18T06:18:05.438Z,102227.86
2018-10-18T06:21:09.006Z,102236.49
2018-10-18T06:24:12.720Z,102242.35
2018-10-18T06:27:16.312Z,102246.40
2018-10-18T06:30:19.880Z,102247.66
2018-10-18T06:33:23.422Z,102256.28
2018-10-18T06:36:27.086Z,102258.87
2018-10-18T06:39:30.691Z,102266.38
2018-10-18T06:42:34.248Z,102263.39
2018-10-18T06:45:37.836Z,102268.10
2018-10-18T06:48:41.825Z,102274.64
2018-10-18T06:51:45.352Z,102279.58
2018-10-18T06:54:48.818Z,102282.23
2018-10-18T06:57:52.356Z,102285.17
2018-10-18T07:00:55.901Z,102292.80
2018-10-18T07:03:59.430Z,102290.75
2018-10-18T07:07:03.133Z,102295.06
2018-10-18T07:10:06.978Z,102289.69
2018-10-18T07:13:10.750Z,102290.49
2018-10-18T07:16:13.939Z,102288.40
2018-10-18T07:19:17.526Z,102285.00
2018-10-18T07:22:21.369Z,102282.92
2018-10-18T07:25:25.014Z,102282.86
2018-10-18T07:28:28.408Z,102282.47
2018-10-18T07:31:31.854Z,102273.54
2018-10-18T07:34:36.275Z,102274.02
2018-10-18T07:37:39.829Z,102277.90
2018-10-18T07:40:43.378Z,102274.82
2018-10-18T07:43:46.816Z,102269.82
2018-10-18T07:46:50.378Z,102274.52
2018-10-18T07:49:53.784Z,102276.67
2018-10-18T07:52:57.312Z,102282.53
2018-10-18T07:56:00.810Z,102284.38
2018-10-18T07:59:04.307Z,102274.73
2018-10-18T08:02:07.956Z,102274.76
2018-10-18T08:05:11.966Z,102283.09
2018-10-18T08:08:15.413Z,102278.11
2018-10-18T08:11:18.833Z,102278.13
2018-10-18T08:14:22.475Z,102277.55
2018-10-18T08:17:26.174Z,102277.23
2018-10-18T08:20:29.938Z,102282.89
2018-10-18T08:23:33.338Z,102281.06
2018-10-18T08:26:36.724Z,102282.25
2018-10-18T08:29:40.184Z,102275.55
2018-10-18T08:32:43.658Z,102274.29
2018-10-18T08:35:47.151Z,102280.09
2018-10-18T08:38:50.730Z,102276.88
2018-10-18T08:41:54.163Z,102278.50
2018-10-18T08:44:57.669Z,102278.32
2018-10-18T08:48:01.208Z,102274.31
2018-10-18T08:51:04.722Z,102273.72
2018-10-18T08:54:08.228Z,102279.53
2018-10-18T08:57:12.226Z,102279.86
2018-10-18T09:00:15.722Z,102281.35
2018-10-18T09:03:19.193Z,102285.13
2018-10-18T09:06:22.673Z,102283.77
2018-10-18T09:09:26.108Z,102283.32
2018-10-18T09:12:29.689Z,102284.92
2018-10-18T09:15:33.212Z,102284.30
2018-10-18T09:18:36.686Z,102278.65
2018-10-18T09:21:40.101Z,102268.50
2018-10-18T09:24:43.558Z,102272.01
2018-10-18T09:27:47.062Z,102272.18
2018-10-18T09:30:50.530Z,102269.03
2018-10-18T09:33:54.111Z,102259.81
2018-10-18T09:36:58.315Z,102256.51
2018-10-18T09:40:02.582Z,102256.63
2018-10-18T09:43:06.222Z,102258.61
2018-10-18T09:46:09.764Z,102259.09
2018-10-18T09:49:13.322Z,102254.21
2018-10-18T09:52:16.769Z,102252.11
2018-10-18T09:55:20.198Z,102260.45
2018-10-18T09:58:23.702Z,102258.06
2018-10-18T10:01:32.563Z,102260.33
2018-10-18T10:04:35.979Z,102258.13
2018-10-18T10:07:39.397Z,102257.17
2018-10-18T10:10:42.844Z,102253.37
2018-10-18T10:13:46.327Z,102252.98
2018-10-18T10:16:49.742Z,102248.44
2018-10-18T10:19:53.202Z,102247.83
2018-10-18T10:22:56.628Z,102243.56
2018-10-18T10:26:00.081Z,102242.50
2018-10-18T10:29:03.539Z,102241.33
2018-10-18T10:32:07.036Z,102225.55
2018-10-18T10:35:10.604Z,102228.35
2018-10-18T10:38:14.054Z,102221.58
2018-10-18T10:41:17.556Z,102225.42
2018-10-18T10:44:21.004Z,102219.15
2018-10-18T10:47:24.346Z,102216.50
2018-10-18T10:50:27.889Z,102215.38
2018-10-18T10:53:32.374Z,102212.25
2018-10-18T10:56:35.917Z,102208.18
2018-10-18T10:59:39.428Z,102203.69
2018-10-18T11:02:43.121Z,102197.56
2018-10-18T11:05:46.561Z,102197.86
2018-10-18T11:08:49.963Z,102194.87
2018-10-18T11:11:53.537Z,102189.53
2018-10-18T11:14:56.968Z,102190.70
2018-10-18T11:18:00.578Z,102192.60
2018-10-18T11:21:05.051Z,102182.23
2018-10-18T11:24:08.491Z,102180.90
2018-10-18T11:27:12.211Z,102174.10
2018-10-18T11:30:15.806Z,102171.41
2018-10-18T11:33:19.073Z,102170.40
2018-10-18T11:36:22.645Z,102167.87
2018-10-18T11:39:26.184Z,102163.26
2018-10-18T11:42:29.894Z,102158.12
2018-10-18T11:45:33.451Z,102155.53
2018-10-18T11:48:36.896Z,102152.13
2018-10-18T11:51:40.554Z,102146.88
2018-10-18T11:54:43.906Z,102144.73
2018-10-18T11:57:47.418Z,102142.37
2018-10-18T12:00:50.970Z,102142.92
2018-10-18T12:03:54.409Z,102139.81
2018-10-18T12:06:57.910Z,102140.91
2018-10-18T12:10:01.442Z,102138.27
2018-10-18T12:13:04.943Z,102141.33
2018-10-18T12:16:08.541Z,102136.23
2018-10-18T12:19:12.094Z,102134.65
2018-10-18T12:22:15.553Z,102131.72
2018-10-18T12:25:19.088Z,102131.70
2018-10-18T12:28:22.602Z,102130.59
2018-10-18T12:31:26.144Z,102129.97
2018-10-18T12:34:29.659Z,102126.91
2018-10-18T12:37:33.136Z,102125.79
2018-10-18T12:40:36.722Z,102122.97
2018-10-18T12:43:40.953Z,102120.74
2018-10-18T12:46:44.480Z,102114.29
2018-10-18T12:49:47.966Z,102114.75
2018-10-18T12:52:51.514Z,102107.36
2018-10-18T12:55:55.041Z,102105.96
2018-10-18T12:58:58.625Z,102103.35
2018-10-18T13:02:02.089Z,102106.94
2018-10-18T13:05:07.137Z,102106.63
2018-10-18T13:08:10.712Z,102103.94
2018-10-18T13:11:14.222Z,102102.91
2018-10-18T13:14:17.804Z,102102.17
2018-10-18T13:17:21.241Z,102100.53
2018-10-18T13:20:24.739Z,102092.32
2018-10-18T13:23:28.288Z,102096.20
2018-10-18T13:26:31.858Z,102098.58
2018-10-18T13:29:36.425Z,102088.64
2018-10-18T13:32:40.511Z,102090.67
2018-10-18T13:35:43.941Z,102090.28
2018-10-18T13:38:47.432Z,102089.31
2018-10-18T13:41:50.878Z,102091.25
2018-10-18T13:44:54.685Z,102082.69
2018-10-18T13:47:58.127Z,102080.69
2018-10-18T13:51:01.822Z,102078.73
2018-10-18T13:54:05.673Z,102077.14
2018-10-18T13:57:09.142Z,102075.85
2018-10-18T14:00:30.020Z,102072.16
2018-10-18T14:03:33.642Z,102067.05
2018-10-18T14:06:37.178Z,102069.39
2018-10-18T14:09:40.661Z,102074.71
2018-10-18T14:12:44.162Z,102064.50
2018-10-18T14:15:47.635Z,102070.30
2018-10-18T14:18:52.049Z,102066.83
2018-10-18T14:21:55.451Z,102065.62
2018-10-18T14:24:59.934Z,102063.39
2018-10-18T14:28:03.482Z,102072.94
2018-10-18T14:31:07.035Z,102066.29
2018-10-18T14:34:10.722Z,102059.53
2018-10-18T14:37:14.216Z,102051.59
2018-10-18T14:40:17.755Z,102055.34
2018-10-18T14:43:21.234Z,102054.07
2018-10-18T14:46:24.743Z,102050.07
2018-10-18T14:49:28.275Z,102057.95
2018-10-18T14:52:31.769Z,102051.64
2018-10-18T14:55:35.369Z,102051.20
2018-10-18T14:58:38.820Z,102054.07
2018-10-18T15:01:42.342Z,102045.68
2018-10-18T15:04:45.836Z,102055.21
2018-10-18T15:07:49.380Z,102050.39
2018-10-18T15:10:52.932Z,102057.48
2018-10-18T15:13:56.334Z,102053.61
2018-10-18T15:16:59.742Z,102061.87
2018-10-18T15:20:03.225Z,102060.17
2018-10-18T15:23:06.650Z,102066.46
2018-10-18T15:26:10.132Z,102071.35
2018-10-18T15:29:13.595Z,102073.72
2018-10-18T15:32:16.998Z,102073.21
2018-10-18T15:35:20.518Z,102077.88
2018-10-18T15:38:24.107Z,102082.68
2018-10-18T15:41:27.316Z,102090.89
2018-10-18T15:44:30.857Z,102092.34
2018-10-18T15:47:34.510Z,102096.67
2018-10-18T15:50:37.833Z,102097.35
2018-10-18T15:53:41.276Z,102099.94
2018-10-18T15:56:44.913Z,102108.85
2018-10-18T15:59:48.482Z,102108.50
2018-10-18T16:02:51.843Z,102115.76
2018-10-18T16:05:55.288Z,102120.88
2018-10-18T16:08:58.740Z,102122.78
2018-10-18T16:12:02.190Z,102129.34
2018-10-18T16:15:06.505Z,102132.42
2018-10-18T16:18:09.890Z,102138.87
2018-10-18T16:21:13.270Z,102136.48
2018-10-18T16:24:17.924Z,102148.34
2018-10-18T16:27:21.332Z,102157.10
2018-10-18T16:30:24.736Z,102167.82
2018-10-18T16:33:28.184Z,102174.46
2018-10-18T16:36:31.631Z,102184.51
2018-10-18T16:39:35.053Z,102188.89
2018-10-18T16:42:38.562Z,102190.39
2018-10-18T16:45:42.010Z,102190.14
2018-10-18T16:48:45.398Z,102196.95
2018-10-18T16:51:48.906Z,102198.88
2018-10-18T16:54:52.540Z,102201.91
2018-10-18T16:57:56.029Z,102201.79
2018-10-18T17:00:59.568Z,102204.21
2018-10-18T17:04:03.073Z,102204.82
2018-10-18T17:07:06.750Z,102211.97
2018-10-18T17:10:10.316Z,102212.48
2018-10-18T17:13:13.949Z,102213.54
2018-10-18T17:16:17.553Z,102220.46
2018-10-18T17:19:21.483Z,102224.11
2018-10-18T17:22:25.112Z,102221.03
2018-10-18T17:25:28.683Z,102225.23
2018-10-18T17:28:32.213Z,102233.48
2018-10-18T17:31:35.676Z,102225.84
2018-10-18T17:34:39.459Z,102239.03
2018-10-18T17:37:43.152Z,102239.08
2018-10-18T17:40:46.846Z,102235.36
2018-10-18T17:43:50.302Z,102239.88
2018-10-18T17:46:53.880Z,102243.29
2018-10-18T17:49:57.554Z,102244.30
2018-10-18T17:53:01.116Z,102247.42
2018-10-18T17:56:04.617Z,102250.77
2018-10-18T17:59:08.165Z,102251.14
2018-10-18T18:02:11.782Z,102252.23
2018-10-18T18:05:15.169Z,102258.32
2018-10-18T18:08:18.698Z,102258.19
2018-10-18T18:11:22.167Z,102264.80
2018-10-18T18:14:25.672Z,102265.85
2018-10-18T18:17:29.222Z,102267.91
2018-10-18T18:20:32.762Z,102271.09
2018-10-18T18:23:36.389Z,102272.96
2018-10-18T18:26:45.346Z,102270.38
2018-10-18T18:29:43.429Z,102270.48
2018-10-18T18:32:46.986Z,102268.70
2018-10-18T18:35:50.448Z,102279.03
2018-10-18T18:38:53.975Z,102275.65
2018-10-18T18:41:57.480Z,102278.71
2018-10-18T18:45:06.351Z,102278.73
2018-10-18T18:48:09.801Z,102281.16
2018-10-18T18:51:13.339Z,102283.68
2018-10-18T18:54:16.849Z,102286.43
2018-10-18T18:57:20.343Z,102294.11
2018-10-18T19:00:23.968Z,102291.05
2018-10-18T19:03:27.479Z,102291.49
2018-10-18T19:06:31.066Z,102297.17
2018-10-18T19:09:36.805Z,102297.57
2018-10-18T19:12:40.440Z,102303.59
2018-10-18T19:15:45.161Z,102299.03
2018-10-18T19:18:48.650Z,102306.85
2018-10-18T19:21:52.218Z,102307.87
2018-10-18T19:24:55.987Z,102312.92
2018-10-18T19:27:59.491Z,102319.52
2018-10-18T19:31:03.158Z,102329.16
2018-10-18T19:34:06.669Z,102322.49
2018-10-18T19:37:10.228Z,102334.78
2018-10-18T19:40:13.770Z,102330.46
2018-10-18T19:43:17.307Z,102336.53
2018-10-18T19:46:21.087Z,102339.76
2018-10-18T19:49:24.729Z,102339.37
2018-10-18T19:52:28.679Z,102339.65
2018-10-18T19:55:32.261Z,102338.41
2018-10-18T19:58:35.860Z,102340.85
2018-10-18T20:01:39.613Z,102347.57
2018-10-18T20:04:44.164Z,102352.27
2018-10-18T20:07:47.607Z,102349.10
2018-10-18T20:10:51.162Z,102352.06
2018-10-18T20:13:54.721Z,102361.98
2018-10-18T20:16:58.269Z,102366.88
2018-10-18T20:20:01.851Z,102369.59
2018-10-18T20:23:05.711Z,102370.77
2018-10-18T20:26:09.381Z,102373.70
2018-10-18T20:29:12.698Z,102372.12
2018-10-18T20:32:16.377Z,102369.78
2018-10-18T20:35:19.955Z,102375.65
2018-10-18T20:38:23.562Z,102381.82
2018-10-18T20:41:27.806Z,102379.97
2018-10-18T20:44:31.286Z,102379.53
2018-10-18T20:47:35.070Z,102384.37
2018-10-18T20:50:38.463Z,102384.10
2018-10-18T20:53:42.020Z,102389.05
2018-10-18T20:56:45.491Z,102389.78
2018-10-18T20:59:48.882Z,102389.89
2018-10-18T21:02:52.473Z,102386.19
2018-10-18T21:05:55.998Z,102395.25
2018-10-18T21:08:59.497Z,102397.31
2018-10-18T21:12:02.916Z,102399.10
2018-10-18T21:15:06.424Z,102397.30
2018-10-18T21:18:09.916Z,102405.55
2018-10-18T21:21:13.395Z,102399.13
2018-10-18T21:24:16.830Z,102398.43
2018-10-18T21:27:20.646Z,102399.27
2018-10-18T21:30:24.108Z,102397.95
2018-10-18T21:33:27.519Z,102404.66
2018-10-18T21:36:30.997Z,102395.91
2018-10-18T21:39:35.848Z,102400.98
2018-10-18T21:42:39.294Z,102398.32
2018-10-18T21:45:42.808Z,102395.16
2018-10-18T21:48:46.470Z,102401.75
2018-10-18T21:51:49.913Z,102396.14
2018-10-18T21:54:53.348Z,102397.99
2018-10-18T21:57:56.776Z,102389.41
2018-10-18T22:01:00.283Z,102391.37
2018-10-18T22:04:03.651Z,102390.00
2018-10-18T22:07:07.060Z,102393.85
2018-10-18T22:10:10.899Z,102395.41
2018-10-18T22:13:14.409Z,102400.51
2018-10-18T22:16:17.982Z,102395.13
2018-10-18T22:19:21.466Z,102402.00
2018-10-18T22:22:24.976Z,102398.76
2018-10-18T22:25:28.519Z,102402.89
2018-10-18T22:28:31.973Z,102405.88
2018-10-18T22:31:35.935Z,102408.49
2018-10-18T22:34:39.410Z,102408.98
2018-10-18T22:37:42.902Z,102405.17
2018-10-18T22:40:47.413Z,102407.42
2018-10-18T22:43:50.967Z,102406.78
2018-10-18T22:46:54.489Z,102401.98
2018-10-18T22:49:57.948Z,102401.22
2018-10-18T22:53:03.511Z,102401.00
2018-10-18T22:56:07.045Z,102400.83
2018-10-18T22:59:10.772Z,102403.06
2018-10-18T23:02:14.350Z,102409.56
2018-10-18T23:05:17.813Z,102413.29
2018-10-18T23:08:23.393Z,102411.36
2018-10-18T23:11:26.973Z,102414.11
2018-10-18T23:14:30.448Z,102412.35
2018-10-18T23:17:33.971Z,102414.21
2018-10-18T23:20:39.323Z,102417.09
2018-10-18T23:23:42.800Z,102411.99
2018-10-18T23:26:47.322Z,102414.03
2018-10-18T23:29:50.827Z,102419.76
2018-10-18T23:32:54.430Z,102416.69
2018-10-18T23:35:58.092Z,102422.53
2018-10-18T23:39:02.699Z,102423.19
2018-10-18T23:42:06.224Z,102423.86
2018-10-18T23:45:14.794Z,102420.86
2018-10-18T23:48:24.637Z,102424.75
2018-10-18T23:51:28.328Z,102421.78
2018-10-18T23:54:31.814Z,102413.53
2018-10-18T23:57:35.419Z,102422.10
